createdAt,value
2022-12-20T00:02:09.786Z,8.20
2022-12-20T00:04:56.185Z,8.20
2022-12-20T00:07:42.669Z,8.30
2022-12-20T00:10:29.342Z,8.20
2022-12-20T00:13:16.044Z,8.20
2022-12-20T00:16:08.994Z,8.20
2022-12-20T00:18:58.170Z,8.20
2022-12-20T00:21:44.671Z,8.20
2022-12-20T00:24:31.308Z,8.20
2022-12-20T00:27:17.738Z,8.30
2022-12-20T00:30:04.632Z,8.30
2022-12-20T00:32:52.473Z,8.30
2022-12-20T00:35:43.379Z,8.30
2022-12-20T00:38:30.113Z,8.40
2022-12-20T00:41:18.856Z,8.40
2022-12-20T00:44:05.953Z,8.40
2022-12-20T00:46:52.404Z,8.50
2022-12-20T00:49:40.538Z,8.50
2022-12-20T00:52:27.329Z,8.50
2022-12-20T00:55:13.757Z,8.50
2022-12-20T00:58:00.106Z,8.50
2022-12-20T01:00:50.550Z,8.50
2022-12-20T01:03:42.732Z,8.60
2022-12-20T01:06:32.307Z,8.60
2022-12-20T01:09:19.163Z,8.60
2022-12-20T01:12:05.686Z,8.60
2022-12-20T01:14:52.262Z,8.60
2022-12-20T01:17:39.101Z,8.60
2022-12-20T01:20:25.698Z,8.70
2022-12-20T01:23:13.556Z,8.80
2022-12-20T01:26:01.195Z,8.80
2022-12-20T01:28:49.446Z,8.90
2022-12-20T01:31:36.957Z,8.90
2022-12-20T01:34:23.710Z,8.90
2022-12-20T01:37:10.225Z,9.00
2022-12-20T01:39:57.990Z,8.90
2022-12-20T01:42:44.789Z,8.90
2022-12-20T01:45:32.450Z,8.90
2022-12-20T01:48:23.407Z,8.80
2022-12-20T01:51:10.194Z,8.80
2022-12-20T01:53:59.543Z,8.90
2022-12-20T01:56:52.426Z,8.90
2022-12-20T01:59:41.567Z,8.90
2022-12-20T02:02:28.763Z,9.00
2022-12-20T02:05:16.902Z,9.00
2022-12-20T02:08:04.029Z,9.00
2022-12-20T02:11:07.463Z,9.00
2022-12-20T02:14:09.612Z,9.00
2022-12-20T02:17:04.286Z,9.00
2022-12-20T02:20:17.536Z,9.00
2022-12-20T02:23:30.360Z,9.00
2022-12-20T02:26:33.595Z,9.10
2022-12-20T02:29:33.760Z,9.20
2022-12-20T02:32:25.984Z,9.20
2022-12-20T02:35:16.798Z,9.20
2022-12-20T02:38:05.706Z,9.20
2022-12-20T02:40:54.382Z,9.30
2022-12-20T02:44:02.222Z,9.30
2022-12-20T02:46:50.524Z,9.30
2022-12-20T02:49:42.324Z,9.30
2022-12-20T02:52:31.217Z,9.30
2022-12-20T02:55:18.598Z,9.30
2022-12-20T02:58:11.194Z,9.30
2022-12-20T03:00:58.932Z,9.30
2022-12-20T03:03:45.835Z,9.30
2022-12-20T03:06:34.048Z,9.30
2022-12-20T03:09:20.836Z,9.30
2022-12-20T03:12:08.417Z,9.40
2022-12-20T03:14:55.126Z,9.30
2022-12-20T03:17:41.741Z,9.30
2022-12-20T03:20:28.150Z,9.30
2022-12-20T03:23:16.125Z,9.30
2022-12-20T03:26:02.882Z,9.40
2022-12-20T03:28:49.330Z,9.40
2022-12-20T03:31:36.114Z,9.40
2022-12-20T03:34:22.988Z,9.50
2022-12-20T03:37:09.503Z,9.50
2022-12-20T03:39:57.423Z,9.40
2022-12-20T03:42:44.472Z,9.40
2022-12-20T03:45:31.151Z,9.40
2022-12-20T03:48:17.512Z,9.40
2022-12-20T03:51:04.109Z,9.40
2022-12-20T03:53:50.596Z,9.40
2022-12-20T03:56:38.348Z,9.30
2022-12-20T03:59:25.101Z,9.30
2022-12-20T04:02:11.899Z,9.30
2022-12-20T04:04:58.365Z,9.30
2022-12-20T04:07:45.364Z,9.30
2022-12-20T04:10:32.308Z,9.30
2022-12-20T04:13:20.363Z,9.30
2022-12-20T04:16:07.552Z,9.30
2022-12-20T04:18:54.673Z,9.30
2022-12-20T04:21:41.629Z,9.30
2022-12-20T04:24:28.097Z,9.30
2022-12-20T04:27:14.613Z,9.30
2022-12-20T04:30:02.358Z,9.40
2022-12-20T04:32:49.127Z,9.40
2022-12-20T04:35:35.562Z,9.30
2022-12-20T04:38:22.899Z,9.30
2022-12-20T04:41:09.315Z,9.30
2022-12-20T04:43:57.633Z,9.30
2022-12-20T04:46:45.452Z,9.30
2022-12-20T04:49:32.055Z,9.20
2022-12-20T04:52:35.969Z,9.20
2022-12-20T04:55:22.957Z,9.20
2022-12-20T04:58:09.705Z,9.10
2022-12-20T05:00:56.215Z,9.10
2022-12-20T05:03:44.495Z,9.10
2022-12-20T05:06:30.992Z,9.10
2022-12-20T05:09:17.473Z,9.00
2022-12-20T05:12:03.921Z,9.00
2022-12-20T05:14:50.493Z,9.00
2022-12-20T05:17:37.127Z,8.90
2022-12-20T05:20:25.269Z,8.90
2022-12-20T05:23:30.268Z,8.90
2022-12-20T05:26:19.528Z,8.80
2022-12-20T05:29:06.506Z,8.80
2022-12-20T05:31:53.724Z,8.90
2022-12-20T05:34:41.024Z,8.80
2022-12-20T05:37:28.733Z,8.80
2022-12-20T05:40:16.169Z,8.80
2022-12-20T05:43:02.813Z,8.70
2022-12-20T05:45:50.703Z,8.70
2022-12-20T05:48:37.338Z,8.60
2022-12-20T05:51:23.973Z,8.60
2022-12-20T05:54:12.135Z,8.60
2022-12-20T05:56:58.769Z,8.60
2022-12-20T05:59:46.698Z,8.60
2022-12-20T06:02:33.645Z,8.60
2022-12-20T06:05:20.828Z,8.60
2022-12-20T06:08:08.360Z,8.60
2022-12-20T06:10:56.715Z,8.60
2022-12-20T06:13:43.140Z,8.60
2022-12-20T06:16:29.753Z,8.60
2022-12-20T06:19:21.434Z,8.60
2022-12-20T06:22:09.683Z,8.60
2022-12-20T06:24:56.204Z,8.60
2022-12-20T06:27:44.221Z,8.60
2022-12-20T06:30:34.076Z,8.60
2022-12-20T06:33:21.223Z,8.60
2022-12-20T06:36:08.507Z,8.60
2022-12-20T06:38:55.223Z,8.60
2022-12-20T06:41:42.444Z,8.60
2022-12-20T06:44:30.403Z,8.60
2022-12-20T06:47:17.344Z,8.70
2022-12-20T06:50:04.385Z,8.60
2022-12-20T06:52:51.173Z,8.70
2022-12-20T06:55:37.762Z,8.70
2022-12-20T06:58:24.283Z,8.70
2022-12-20T07:01:12.262Z,8.80
2022-12-20T07:03:59.118Z,8.80
2022-12-20T07:06:45.617Z,8.90
2022-12-20T07:09:32.263Z,8.90
2022-12-20T07:12:18.771Z,8.90
2022-12-20T07:15:06.573Z,9.00
2022-12-20T07:17:54.730Z,9.00
2022-12-20T07:20:41.848Z,9.10
2022-12-20T07:23:28.706Z,9.10
2022-12-20T07:26:16.549Z,9.20
2022-12-20T07:29:03.513Z,9.20
2022-12-20T07:31:50.117Z,9.20
2022-12-20T07:34:39.619Z,9.20
2022-12-20T07:37:26.159Z,9.30
2022-12-20T07:40:14.711Z,9.20
2022-12-20T07:43:01.496Z,9.20
2022-12-20T07:45:47.905Z,9.20
2022-12-20T07:48:35.186Z,9.20
2022-12-20T07:51:26.316Z,9.20
2022-12-20T07:54:16.369Z,9.20
2022-12-20T07:57:08.381Z,9.20
2022-12-20T07:59:57.970Z,9.20
2022-12-20T08:02:48.338Z,9.20
2022-12-20T08:05:36.783Z,9.20
2022-12-20T08:08:25.573Z,9.20
2022-12-20T08:11:12.798Z,9.20
2022-12-20T08:13:59.547Z,9.30
2022-12-20T08:16:46.539Z,9.20
2022-12-20T08:19:33.222Z,9.20
2022-12-20T08:22:20.281Z,9.30
2022-12-20T08:25:09.790Z,9.20
2022-12-20T08:27:56.501Z,9.30
2022-12-20T08:30:43.590Z,9.20
2022-12-20T08:33:30.610Z,9.20
2022-12-20T08:36:17.223Z,9.20
2022-12-20T08:39:04.170Z,9.20
2022-12-20T08:41:52.101Z,9.20
2022-12-20T08:44:38.795Z,9.20
2022-12-20T08:47:25.383Z,9.20
2022-12-20T08:50:13.669Z,9.20
2022-12-20T08:53:00.371Z,9.20
2022-12-20T08:55:46.926Z,9.20
2022-12-20T08:58:35.029Z,9.20
2022-12-20T09:01:23.639Z,9.30
2022-12-20T09:04:11.909Z,9.30
2022-12-20T09:06:58.729Z,9.30
2022-12-20T09:09:45.310Z,9.30
2022-12-20T09:12:31.892Z,9.30
2022-12-20T09:15:19.967Z,9.30
2022-12-20T09:18:07.022Z,9.40
2022-12-20T09:20:53.407Z,9.40
2022-12-20T09:23:40.134Z,9.40
2022-12-20T09:26:27.288Z,9.40
2022-12-20T09:29:16.098Z,9.40
2022-12-20T09:32:07.638Z,9.40
2022-12-20T09:34:53.980Z,9.50
2022-12-20T09:37:41.501Z,9.50
2022-12-20T09:40:32.531Z,9.50
2022-12-20T09:43:20.971Z,9.50
2022-12-20T09:46:07.804Z,9.60
2022-12-20T09:48:56.020Z,9.60
2022-12-20T09:52:01.338Z,9.60
2022-12-20T09:54:56.414Z,9.60
2022-12-20T09:57:56.727Z,9.70
2022-12-20T10:00:53.491Z,9.70
2022-12-20T10:03:41.692Z,9.70
2022-12-20T10:06:42.677Z,9.70
2022-12-20T10:09:46.066Z,9.70
2022-12-20T10:12:42.853Z,9.70
2022-12-20T10:15:34.928Z,9.70
2022-12-20T10:18:35.920Z,9.80
2022-12-20T10:21:31.575Z,9.80
2022-12-20T10:24:21.243Z,9.80
2022-12-20T10:27:15.051Z,9.80
2022-12-20T10:30:01.551Z,9.90
2022-12-20T10:32:50.408Z,9.90
2022-12-20T10:35:40.426Z,9.90
2022-12-20T10:38:45.145Z,10.00
2022-12-20T10:41:48.826Z,10.10
2022-12-20T10:44:35.581Z,10.10
2022-12-20T10:47:31.894Z,10.20
2022-12-20T10:50:20.707Z,10.30
2022-12-20T10:53:29.322Z,10.30
2022-12-20T10:56:21.784Z,10.50
2022-12-20T10:59:31.194Z,10.50
2022-12-20T11:02:30.321Z,10.60
2022-12-20T11:05:25.604Z,10.70
2022-12-20T11:08:46.807Z,10.80
2022-12-20T11:11:26.569Z,10.80
2022-12-20T11:14:16.338Z,10.90
2022-12-20T11:17:08.427Z,11.00
2022-12-20T11:20:05.191Z,10.90
2022-12-20T11:23:02.686Z,10.90
2022-12-20T11:26:00.016Z,10.90
2022-12-20T11:29:01.255Z,11.00
2022-12-20T11:31:58.321Z,11.00
2022-12-20T11:34:53.752Z,11.00
2022-12-20T11:37:47.464Z,11.10
2022-12-20T11:40:38.886Z,11.10
2022-12-20T11:44:08.051Z,11.10
2022-12-20T11:47:00.019Z,11.10
2022-12-20T11:50:04.528Z,11.10
2022-12-20T11:52:55.200Z,11.10
2022-12-20T11:55:44.304Z,11.10
2022-12-20T11:58:40.025Z,11.10
2022-12-20T12:01:32.386Z,11.10
2022-12-20T12:04:23.551Z,11.10
2022-12-20T12:07:16.985Z,11.10
2022-12-20T12:10:07.887Z,11.10
2022-12-20T12:13:01.623Z,11.10
2022-12-20T12:15:55.894Z,11.10
2022-12-20T12:18:43.264Z,11.10
2022-12-20T12:21:35.317Z,11.10
2022-12-20T12:24:29.637Z,11.10
2022-12-20T12:27:24.938Z,11.10
2022-12-20T12:30:16.054Z,11.10
2022-12-20T12:33:08.289Z,11.10
2022-12-20T12:36:33.523Z,11.10
2022-12-20T12:39:46.491Z,11.10
2022-12-20T12:43:13.379Z,11.10
2022-12-20T12:46:02.201Z,11.10
2022-12-20T12:48:55.685Z,11.10
2022-12-20T12:51:51.180Z,11.10
2022-12-20T12:54:43.664Z,11.10
2022-12-20T12:57:30.587Z,11.10
2022-12-20T13:00:51.658Z,11.00
2022-12-20T13:03:47.564Z,11.00
2022-12-20T13:07:25.379Z,11.00
2022-12-20T13:10:45.229Z,10.90
2022-12-20T13:13:33.684Z,11.00
2022-12-20T13:17:10.212Z,10.90
2022-12-20T13:19:41.313Z,10.90
2022-12-20T13:22:28.179Z,10.90
2022-12-20T13:25:31.012Z,10.90
2022-12-20T13:28:52.348Z,10.90
2022-12-20T13:31:39.152Z,10.90
2022-12-20T13:34:41.097Z,10.90
2022-12-20T13:37:29.124Z,10.80
2022-12-20T13:40:22.553Z,10.90
2022-12-20T13:43:25.476Z,10.80
2022-12-20T13:46:22.454Z,10.80
2022-12-20T13:49:13.119Z,10.70
2022-12-20T13:52:17.897Z,10.70
2022-12-20T13:55:16.943Z,10.70
2022-12-20T13:58:09.172Z,10.60
2022-12-20T14:01:04.674Z,10.60
2022-12-20T14:03:54.471Z,10.60
2022-12-20T14:06:41.476Z,10.60
2022-12-20T14:09:33.986Z,10.50
2022-12-20T14:12:26.427Z,10.50
2022-12-20T14:15:28.573Z,10.50
2022-12-20T14:18:20.286Z,10.50
2022-12-20T14:21:10.102Z,10.50
2022-12-20T14:23:58.841Z,10.50
2022-12-20T14:26:48.141Z,10.50
2022-12-20T14:29:34.939Z,10.50
2022-12-20T14:32:22.837Z,10.50
2022-12-20T14:35:20.464Z,10.50
2022-12-20T14:38:22.895Z,10.50
2022-12-20T14:41:30.462Z,10.50
2022-12-20T14:44:18.570Z,10.40
2022-12-20T14:47:15.611Z,10.40
2022-12-20T14:50:05.756Z,10.40
2022-12-20T14:52:52.217Z,10.40
2022-12-20T14:55:46.043Z,10.40
2022-12-20T14:58:34.273Z,10.40
2022-12-20T15:01:23.329Z,10.40
2022-12-20T15:04:23.928Z,10.30
2022-12-20T15:07:34.318Z,10.30
2022-12-20T15:10:20.890Z,10.30
2022-12-20T15:13:14.199Z,10.20
2022-12-20T15:16:04.585Z,10.20
2022-12-20T15:18:53.671Z,10.20
2022-12-20T15:21:43.252Z,10.20
2022-12-20T15:24:31.517Z,10.20
2022-12-20T15:27:18.115Z,10.10
2022-12-20T15:30:08.215Z,10.10
2022-12-20T15:32:56.089Z,10.10
2022-12-20T15:35:42.805Z,10.10
2022-12-20T15:38:54.740Z,10.10
2022-12-20T15:41:36.264Z,10.10
2022-12-20T15:44:25.177Z,10.10
2022-12-20T15:47:13.924Z,10.10
2022-12-20T15:50:00.370Z,10.20
2022-12-20T15:52:46.751Z,10.10
2022-12-20T15:55:39.478Z,10.20
2022-12-20T15:58:27.633Z,10.20
2022-12-20T16:01:17.223Z,10.20
2022-12-20T16:04:06.349Z,10.10
2022-12-20T16:06:54.102Z,10.10
2022-12-20T16:09:40.374Z,10.20
2022-12-20T16:12:31.383Z,10.20
2022-12-20T16:15:21.688Z,10.20
2022-12-20T16:18:09.051Z,10.30
2022-12-20T16:20:57.238Z,10.30
2022-12-20T16:23:43.520Z,10.40
2022-12-20T16:26:30.293Z,10.40
2022-12-20T16:29:17.020Z,10.40
2022-12-20T16:32:08.044Z,10.40
2022-12-20T16:34:54.739Z,10.50
2022-12-20T16:37:42.488Z,10.50
2022-12-20T16:40:31.336Z,10.60
2022-12-20T16:43:18.390Z,10.60
2022-12-20T16:46:08.090Z,10.70
2022-12-20T16:48:55.195Z,10.80
2022-12-20T16:51:45.450Z,10.80
2022-12-20T16:54:33.496Z,10.80
2022-12-20T16:57:21.387Z,10.90
2022-12-20T17:00:10.201Z,10.80
2022-12-20T17:02:58.877Z,10.80
2022-12-20T17:05:45.945Z,10.90
2022-12-20T17:11:38.724Z,10.80
2022-12-20T17:14:25.466Z,10.80
2022-12-20T17:17:12.093Z,10.80
2022-12-20T17:19:58.883Z,10.80
2022-12-20T17:25:54.154Z,10.70
2022-12-20T17:28:42.856Z,10.70
2022-12-20T17:31:31.559Z,10.70
2022-12-20T17:34:21.237Z,10.70
2022-12-20T17:37:09.358Z,10.70
2022-12-20T17:39:55.653Z,10.70
2022-12-20T17:42:42.104Z,10.70
2022-12-20T17:45:32.447Z,10.70
2022-12-20T17:48:19.016Z,10.70
2022-12-20T17:51:10.749Z,10.60
2022-12-20T17:53:59.772Z,10.60
2022-12-20T17:56:46.690Z,10.60
2022-12-20T17:59:33.274Z,10.60
2022-12-20T18:02:22.833Z,10.60
2022-12-20T18:05:12.530Z,10.60
2022-12-20T18:07:58.867Z,10.60
2022-12-20T18:10:45.882Z,10.60
2022-12-20T18:13:32.474Z,10.60
2022-12-20T18:16:22.592Z,10.60
2022-12-20T18:19:17.117Z,10.60
2022-12-20T18:22:04.817Z,10.60
2022-12-20T18:24:51.451Z,10.70
2022-12-20T18:27:39.357Z,10.60
2022-12-20T18:30:26.050Z,10.60
2022-12-20T18:33:12.611Z,10.60
2022-12-20T18:36:06.358Z,10.60
2022-12-20T18:38:53.324Z,10.60
2022-12-20T18:41:42.918Z,10.50
2022-12-20T18:44:29.641Z,10.50
2022-12-20T18:47:16.321Z,10.50
2022-12-20T18:50:02.723Z,10.50
2022-12-20T18:52:50.601Z,10.50
2022-12-20T18:55:37.990Z,10.40
2022-12-20T18:58:24.638Z,10.40
2022-12-20T19:01:13.805Z,10.40
2022-12-20T19:04:02.657Z,10.40
2022-12-20T19:06:49.093Z,10.40
2022-12-20T19:09:36.921Z,10.40
2022-12-20T19:12:23.380Z,10.40
2022-12-20T19:15:10.294Z,10.40
2022-12-20T19:17:56.670Z,10.40
2022-12-20T19:20:43.501Z,10.40
2022-12-20T19:23:30.031Z,10.40
2022-12-20T19:26:19.485Z,10.30
2022-12-20T19:29:07.357Z,10.30
2022-12-20T19:31:54.272Z,10.30
2022-12-20T19:34:40.853Z,10.20
2022-12-20T19:37:31.934Z,10.20
2022-12-20T19:40:21.782Z,10.20
2022-12-20T19:43:09.508Z,10.20
2022-12-20T19:45:58.023Z,10.20
2022-12-20T19:48:44.604Z,10.10
2022-12-20T19:51:31.471Z,10.10
2022-12-20T19:54:17.929Z,10.10
2022-12-20T19:57:04.297Z,10.10
2022-12-20T19:59:55.735Z,10.10
2022-12-20T20:02:43.039Z,10.00
2022-12-20T20:05:29.656Z,10.00
2022-12-20T20:08:16.896Z,10.00
2022-12-20T20:11:09.416Z,10.00
2022-12-20T20:13:56.695Z,10.00
2022-12-20T20:16:44.398Z,10.00
2022-12-20T20:19:30.981Z,10.00
2022-12-20T20:22:22.687Z,10.00
2022-12-20T20:25:10.279Z,9.90
2022-12-20T20:27:57.020Z,9.90
2022-12-20T20:30:43.398Z,9.90
2022-12-20T20:33:31.876Z,9.90
2022-12-20T20:36:21.432Z,9.80
2022-12-20T20:39:07.899Z,9.80
2022-12-20T20:41:54.331Z,9.80
2022-12-20T20:44:40.759Z,9.80
2022-12-20T20:47:27.303Z,9.80
2022-12-20T20:50:15.366Z,9.80
2022-12-20T20:53:01.798Z,9.80
2022-12-20T20:55:48.281Z,9.80
2022-12-20T20:58:35.299Z,9.80
2022-12-20T21:01:22.993Z,9.80
2022-12-20T21:04:09.715Z,9.80
2022-12-20T21:06:58.081Z,9.80
2022-12-20T21:09:44.630Z,9.80
2022-12-20T21:12:30.949Z,9.70
2022-12-20T21:15:23.272Z,9.70
2022-12-20T21:18:10.185Z,9.80
2022-12-20T21:20:57.145Z,9.70
2022-12-20T21:23:47.375Z,9.70
2022-12-20T21:26:33.970Z,9.70
2022-12-20T21:29:21.219Z,9.70
2022-12-20T21:32:08.041Z,9.70
2022-12-20T21:34:54.721Z,9.70
2022-12-20T21:37:41.097Z,9.70
2022-12-20T21:40:28.741Z,9.70
2022-12-20T21:43:15.244Z,9.70
2022-12-20T21:46:02.212Z,9.70
2022-12-20T21:48:48.684Z,9.70
2022-12-20T21:51:35.904Z,9.70
2022-12-20T21:54:22.571Z,9.70
2022-12-20T21:57:11.092Z,9.70
2022-12-20T21:59:57.513Z,9.70
2022-12-20T22:02:43.982Z,9.70
2022-12-20T22:05:30.895Z,9.70
2022-12-20T22:08:18.278Z,9.70
2022-12-20T22:11:06.955Z,9.60
2022-12-20T22:13:56.550Z,9.70
2022-12-20T22:16:43.846Z,9.70
2022-12-20T22:19:30.630Z,9.60
2022-12-20T22:22:18.223Z,9.60
2022-12-20T22:25:05.204Z,9.70
2022-12-20T22:27:52.225Z,9.60
2022-12-20T22:30:43.232Z,9.50
2022-12-20T22:33:29.528Z,9.60
2022-12-20T22:36:17.068Z,9.60
2022-12-20T22:39:04.223Z,9.60
2022-12-20T22:41:50.560Z,9.60
2022-12-20T22:44:37.186Z,9.60
2022-12-20T22:47:24.898Z,9.60
2022-12-20T22:50:12.005Z,9.60
2022-12-20T22:52:59.578Z,9.60
2022-12-20T22:55:46.294Z,9.60
2022-12-20T22:58:33.662Z,9.60
2022-12-20T23:01:21.702Z,9.60
2022-12-20T23:04:09.790Z,9.60
2022-12-20T23:06:56.421Z,9.60
2022-12-20T23:09:42.807Z,9.70
2022-12-20T23:12:46.438Z,9.60
2022-12-20T23:15:41.902Z,9.70
2022-12-20T23:18:28.397Z,9.70
2022-12-20T23:21:33.605Z,9.70
2022-12-20T23:24:20.210Z,9.80
2022-12-20T23:27:06.603Z,9.80
2022-12-20T23:29:53.098Z,9.80
2022-12-20T23:32:39.498Z,9.80
2022-12-20T23:35:27.020Z,9.80
2022-12-20T23:38:14.841Z,9.90
2022-12-20T23:41:01.575Z,9.80
2022-12-20T23:43:47.878Z,9.90
2022-12-20T23:46:34.656Z,9.90
2022-12-20T23:49:21.198Z,9.90
2022-12-20T23:52:07.712Z,9.90
2022-12-20T23:54:55.766Z,9.90
2022-12-20T23:57:42.431Z,9.90
